Aérodrome :
LOGIN :

S'inscrire | Disclaimer

   EN    FR    IT 

 










Légende :    VFR   VFR Marginal   IFR   IFR Intensif   IFR Très Intensif
Visi : 
Plafond : 
>= 8 km
>= 3000ft
5 à 8 km
1000 à 3000 ft
1500m à 5 km
500 à 1000 ft
800 à 1500m
200 à 500 ft
< 800m
< 200 ft
Symboles :   Orages  Brouillard  Fortes neiges  Fortes précipitations  Vent > 20 kt
SIGMETs :   Divers  Orages  Givrage  Turbulence  Onde Orograph.  Cendres Volcan.







- Altitude de l'aérodrome : 2731 ft
- Code IATA : LPY
- Voir les cartes d'approche


LFHP - Le Puy Loudes

DERNIER METAR :
  • 190830Z AUTO 16013KT CAVOK 16/M01 Q1026

METARs EXPIRÉS :
  • 190800Z AUTO 16011KT 130V190 CAVOK 15/01 Q1025
  • 190730Z AUTO 16009KT 130V200 CAVOK 15/01 Q1025
  • 190700Z AUTO 14006KT 110V180 CAVOK 14/02 Q1025

Prévision TAF périmée.
Pas de NOTAMs connus pour ce terrain.
2 SIGMETs publiés pour la FIR Marseille (LFMM) :
 
Turbulence forte
LFMM SIGMET 2 VALID 190700/191100 LFPW
LFMM MARSEILLE FIR/UIR SEV TURB FCST WI N4230 E00700 - N4245 E00515 - N4345 E00530 - N4330 E00700 - N4230 E00700 SFC/FL060 STNR INTSF=
Turbulence forte
LFMM SIGMET 1 VALID 190500/190900 LFPW
LFMM MARSEILLE FIR/UIR SEV TURB FCST WI N4315 E00230 - N4415 E00245 - N4500 E00345 - N4445 E00415 - N4315 E00230 SFC/FL060 STNR NC=



MET'MAP, la Météo Aéronautique d'un coup d'oeil ! - Copyright ORBIFLY Décembre 2007 - Disclaimer

ORBIFLY MET'MAP TEAM :

Programmation & Développement : Alexandra Zaïnal
Conception & Développement : Baudouin d'Aumeries
Co-Programmation & Développement : Marc-Olivier Méhu
Soutien technique & logistique : Manuel Goepfert

Contact : metmap@orbifly.com




SOURCES & CREDITS :

   NOAA